sensor_id;sensor_type;location;lat;lon;timestamp;temperature;humidity
51500;DHT22;39101;53.478;6.158;2023-05-19T00:01:35;9.00;99.90
51500;DHT22;39101;53.478;6.158;2023-05-19T00:04:02;9.00;99.90
51500;DHT22;39101;53.478;6.158;2023-05-19T00:06:31;9.00;99.90
51500;DHT22;39101;53.478;6.158;2023-05-19T00:11:23;9.10;99.90
51500;DHT22;39101;53.478;6.158;2023-05-19T00:13:52;9.00;99.90
51500;DHT22;39101;53.478;6.158;2023-05-19T00:16:18;9.10;99.90
51500;DHT22;39101;53.478;6.158;2023-05-19T00:18:44;9.00;99.90
51500;DHT22;39101;53.478;6.158;2023-05-19T00:21:11;9.00;99.90
51500;DHT22;39101;53.478;6.158;2023-05-19T00:23:37;9.00;99.90
51500;DHT22;39101;53.478;6.158;2023-05-19T00:26:03;9.10;99.90
51500;DHT22;39101;53.478;6.158;2023-05-19T00:28:28;9.00;99.90
51500;DHT22;39101;53.478;6.158;2023-05-19T00:30:54;9.00;99.90
51500;DHT22;39101;53.478;6.158;2023-05-19T00:33:20;9.10;99.90
51500;DHT22;39101;53.478;6.158;2023-05-19T00:35:46;9.10;99.90
51500;DHT22;39101;53.478;6.158;2023-05-19T00:38:11;8.90;99.90
51500;DHT22;39101;53.478;6.158;2023-05-19T00:40:37;9.00;99.90
51500;DHT22;39101;53.478;6.158;2023-05-19T00:43:03;8.90;99.90
51500;DHT22;39101;53.478;6.158;2023-05-19T00:45:30;8.90;99.90
51500;DHT22;39101;53.478;6.158;2023-05-19T00:47:56;9.00;99.90
51500;DHT22;39101;53.478;6.158;2023-05-19T00:50:22;8.90;99.90
51500;DHT22;39101;53.478;6.158;2023-05-19T00:52:49;8.90;99.90
51500;DHT22;39101;53.478;6.158;2023-05-19T00:55:15;8.90;99.90
51500;DHT22;39101;53.478;6.158;2023-05-19T00:57:42;8.90;99.90
51500;DHT22;39101;53.478;6.158;2023-05-19T01:00:08;8.80;99.90
51500;DHT22;39101;53.478;6.158;2023-05-19T01:02:35;8.80;99.90
51500;DHT22;39101;53.478;6.158;2023-05-19T01:05:05;8.90;99.90
51500;DHT22;39101;53.478;6.158;2023-05-19T01:07:31;8.80;99.90
51500;DHT22;39101;53.478;6.158;2023-05-19T01:09:57;8.90;99.90
51500;DHT22;39101;53.478;6.158;2023-05-19T01:12:23;9.00;99.90
51500;DHT22;39101;53.478;6.158;2023-05-19T01:14:50;8.70;99.90
51500;DHT22;39101;53.478;6.158;2023-05-19T01:17:28;8.70;99.90
51500;DHT22;39101;53.478;6.158;2023-05-19T01:22:48;8.80;99.90
51500;DHT22;39101;53.478;6.158;2023-05-19T01:30:42;8.80;99.90
51500;DHT22;39101;53.478;6.158;2023-05-19T01:33:11;8.70;99.90
51500;DHT22;39101;53.478;6.158;2023-05-19T01:35:42;8.70;99.90
51500;DHT22;39101;53.478;6.158;2023-05-19T01:38:10;8.70;99.90
51500;DHT22;39101;53.478;6.158;2023-05-19T01:40:40;8.80;99.90
51500;DHT22;39101;53.478;6.158;2023-05-19T01:43:09;8.70;99.90
51500;DHT22;39101;53.478;6.158;2023-05-19T01:45:35;8.90;99.90
51500;DHT22;39101;53.478;6.158;2023-05-19T01:48:03;8.70;99.90
51500;DHT22;39101;53.478;6.158;2023-05-19T01:50:29;8.80;99.90
51500;DHT22;39101;53.478;6.158;2023-05-19T01:52:56;8.80;99.90
51500;DHT22;39101;53.478;6.158;2023-05-19T01:55:22;8.90;99.90
51500;DHT22;39101;53.478;6.158;2023-05-19T01:57:54;8.80;99.90
51500;DHT22;39101;53.478;6.158;2023-05-19T02:09:22;8.90;99.90
51500;DHT22;39101;53.478;6.158;2023-05-19T02:11:37;8.80;99.90
51500;DHT22;39101;53.478;6.158;2023-05-19T02:14:19;8.90;99.90
51500;DHT22;39101;53.478;6.158;2023-05-19T02:16:47;8.90;99.90
51500;DHT22;39101;53.478;6.158;2023-05-19T02:19:29;8.90;99.90
51500;DHT22;39101;53.478;6.158;2023-05-19T02:21:56;9.00;99.90
51500;DHT22;39101;53.478;6.158;2023-05-19T02:24:22;8.90;99.90
51500;DHT22;39101;53.478;6.158;2023-05-19T02:26:51;8.90;99.90
51500;DHT22;39101;53.478;6.158;2023-05-19T02:29:18;8.80;99.90
51500;DHT22;39101;53.478;6.158;2023-05-19T02:31:44;9.00;99.90
51500;DHT22;39101;53.478;6.158;2023-05-19T02:34:10;8.90;99.90
51500;DHT22;39101;53.478;6.158;2023-05-19T02:36:39;9.00;99.90
51500;DHT22;39101;53.478;6.158;2023-05-19T02:39:09;9.00;99.90
51500;DHT22;39101;53.478;6.158;2023-05-19T02:41:36;8.90;99.90
51500;DHT22;39101;53.478;6.158;2023-05-19T02:44:01;8.90;99.90
51500;DHT22;39101;53.478;6.158;2023-05-19T02:46:27;9.00;99.90
51500;DHT22;39101;53.478;6.158;2023-05-19T02:48:53;8.80;99.90
51500;DHT22;39101;53.478;6.158;2023-05-19T02:51:18;8.80;99.90
51500;DHT22;39101;53.478;6.158;2023-05-19T02:53:44;8.80;99.90
51500;DHT22;39101;53.478;6.158;2023-05-19T02:56:09;8.90;99.90
51500;DHT22;39101;53.478;6.158;2023-05-19T02:58:35;8.90;99.90
51500;DHT22;39101;53.478;6.158;2023-05-19T03:01:01;8.90;99.90
51500;DHT22;39101;53.478;6.158;2023-05-19T03:03:27;9.00;99.90
51500;DHT22;39101;53.478;6.158;2023-05-19T03:05:53;8.90;99.90
51500;DHT22;39101;53.478;6.158;2023-05-19T03:08:19;8.80;99.90
51500;DHT22;39101;53.478;6.158;2023-05-19T03:10:45;8.80;99.90
51500;DHT22;39101;53.478;6.158;2023-05-19T03:13:11;8.90;99.90
51500;DHT22;39101;53.478;6.158;2023-05-19T03:15:37;8.90;99.90
51500;DHT22;39101;53.478;6.158;2023-05-19T03:18:03;8.90;99.90
51500;DHT22;39101;53.478;6.158;2023-05-19T03:20:28;8.90;99.90
51500;DHT22;39101;53.478;6.158;2023-05-19T03:22:57;8.90;99.90
51500;DHT22;39101;53.478;6.158;2023-05-19T03:25:23;8.90;99.90
51500;DHT22;39101;53.478;6.158;2023-05-19T03:27:48;8.80;99.90
51500;DHT22;39101;53.478;6.158;2023-05-19T03:30:14;8.90;99.90
51500;DHT22;39101;53.478;6.158;2023-05-19T03:32:40;8.90;99.90
51500;DHT22;39101;53.478;6.158;2023-05-19T03:35:06;8.90;99.90
51500;DHT22;39101;53.478;6.158;2023-05-19T03:37:32;8.80;99.90
51500;DHT22;39101;53.478;6.158;2023-05-19T03:40:01;8.90;99.90
51500;DHT22;39101;53.478;6.158;2023-05-19T03:42:26;8.90;99.90
51500;DHT22;39101;53.478;6.158;2023-05-19T03:44:52;8.90;99.90
51500;DHT22;39101;53.478;6.158;2023-05-19T03:47:17;9.00;99.90
51500;DHT22;39101;53.478;6.158;2023-05-19T03:49:43;8.90;99.90
51500;DHT22;39101;53.478;6.158;2023-05-19T03:52:09;9.00;99.90
51500;DHT22;39101;53.478;6.158;2023-05-19T03:54:35;8.90;99.90
51500;DHT22;39101;53.478;6.158;2023-05-19T03:57:01;9.00;99.90
51500;DHT22;39101;53.478;6.158;2023-05-19T03:59:27;9.00;99.90
51500;DHT22;39101;53.478;6.158;2023-05-19T04:01:53;8.80;99.90
51500;DHT22;39101;53.478;6.158;2023-05-19T04:04:19;8.80;99.90
51500;DHT22;39101;53.478;6.158;2023-05-19T04:06:45;9.00;99.90
51500;DHT22;39101;53.478;6.158;2023-05-19T04:09:14;8.90;99.90
51500;DHT22;39101;53.478;6.158;2023-05-19T04:11:40;9.00;99.90
51500;DHT22;39101;53.478;6.158;2023-05-19T04:14:07;9.10;99.90
51500;DHT22;39101;53.478;6.158;2023-05-19T04:16:33;9.10;99.90
51500;DHT22;39101;53.478;6.158;2023-05-19T04:18:59;9.10;99.90
51500;DHT22;39101;53.478;6.158;2023-05-19T04:21:25;9.00;99.90
51500;DHT22;39101;53.478;6.158;2023-05-19T04:23:51;9.20;99.90
51500;DHT22;39101;53.478;6.158;2023-05-19T04:26:17;9.30;99.90
51500;DHT22;39101;53.478;6.158;2023-05-19T04:28:46;9.10;99.90
51500;DHT22;39101;53.478;6.158;2023-05-19T04:31:13;9.30;99.90
51500;DHT22;39101;53.478;6.158;2023-05-19T04:33:40;9.40;99.90
51500;DHT22;39101;53.478;6.158;2023-05-19T04:36:09;9.50;99.90
51500;DHT22;39101;53.478;6.158;2023-05-19T04:38:36;9.40;99.90
51500;DHT22;39101;53.478;6.158;2023-05-19T04:41:02;9.40;99.90
51500;DHT22;39101;53.478;6.158;2023-05-19T04:43:28;9.50;99.90
51500;DHT22;39101;53.478;6.158;2023-05-19T04:45:54;9.60;99.90
51500;DHT22;39101;53.478;6.158;2023-05-19T04:48:20;9.60;99.90
51500;DHT22;39101;53.478;6.158;2023-05-19T04:50:49;9.80;99.90
51500;DHT22;39101;53.478;6.158;2023-05-19T04:53:16;9.80;99.90
51500;DHT22;39101;53.478;6.158;2023-05-19T04:55:43;9.90;99.90
51500;DHT22;39101;53.478;6.158;2023-05-19T04:58:09;10.00;99.90
51500;DHT22;39101;53.478;6.158;2023-05-19T05:00:36;10.10;99.90
51500;DHT22;39101;53.478;6.158;2023-05-19T05:03:02;10.00;99.90
51500;DHT22;39101;53.478;6.158;2023-05-19T05:05:31;10.20;99.90
51500;DHT22;39101;53.478;6.158;2023-05-19T05:07:57;10.20;99.90
51500;DHT22;39101;53.478;6.158;2023-05-19T05:10:23;10.20;99.90
51500;DHT22;39101;53.478;6.158;2023-05-19T05:12:49;10.50;99.90
51500;DHT22;39101;53.478;6.158;2023-05-19T05:15:16;10.40;99.90
51500;DHT22;39101;53.478;6.158;2023-05-19T05:17:42;10.50;99.90
51500;DHT22;39101;53.478;6.158;2023-05-19T05:20:08;10.70;99.90
51500;DHT22;39101;53.478;6.158;2023-05-19T05:22:36;10.60;99.90
51500;DHT22;39101;53.478;6.158;2023-05-19T05:25:03;10.80;99.90
51500;DHT22;39101;53.478;6.158;2023-05-19T05:27:30;10.90;99.90
51500;DHT22;39101;53.478;6.158;2023-05-19T05:29:56;11.00;99.90
51500;DHT22;39101;53.478;6.158;2023-05-19T05:32:21;11.00;99.90
51500;DHT22;39101;53.478;6.158;2023-05-19T05:34:47;11.10;99.90
51500;DHT22;39101;53.478;6.158;2023-05-19T05:37:14;11.20;99.90
51500;DHT22;39101;53.478;6.158;2023-05-19T05:39:39;11.20;99.90
51500;DHT22;39101;53.478;6.158;2023-05-19T05:42:06;11.20;99.90
51500;DHT22;39101;53.478;6.158;2023-05-19T05:44:33;11.30;99.90
51500;DHT22;39101;53.478;6.158;2023-05-19T05:47:01;11.30;99.90
51500;DHT22;39101;53.478;6.158;2023-05-19T05:49:27;11.40;99.90
51500;DHT22;39101;53.478;6.158;2023-05-19T05:51:53;11.50;99.90
51500;DHT22;39101;53.478;6.158;2023-05-19T05:54:21;11.50;99.90
51500;DHT22;39101;53.478;6.158;2023-05-19T05:56:47;11.60;99.90
51500;DHT22;39101;53.478;6.158;2023-05-19T05:59:13;11.70;99.90
51500;DHT22;39101;53.478;6.158;2023-05-19T06:01:40;11.90;99.90
51500;DHT22;39101;53.478;6.158;2023-05-19T06:04:08;11.80;99.90
51500;DHT22;39101;53.478;6.158;2023-05-19T06:06:34;12.00;99.90
51500;DHT22;39101;53.478;6.158;2023-05-19T06:09:02;11.80;99.90
51500;DHT22;39101;53.478;6.158;2023-05-19T06:11:28;11.90;99.90
51500;DHT22;39101;53.478;6.158;2023-05-19T06:13:54;12.00;99.90
51500;DHT22;39101;53.478;6.158;2023-05-19T06:16:19;12.10;99.90
51500;DHT22;39101;53.478;6.158;2023-05-19T06:18:45;12.10;99.90
51500;DHT22;39101;53.478;6.158;2023-05-19T06:21:11;12.30;99.90
51500;DHT22;39101;53.478;6.158;2023-05-19T06:23:39;12.40;99.90
51500;DHT22;39101;53.478;6.158;2023-05-19T06:26:04;12.40;99.90
51500;DHT22;39101;53.478;6.158;2023-05-19T06:28:30;12.50;99.90
51500;DHT22;39101;53.478;6.158;2023-05-19T06:30:56;12.60;99.90
51500;DHT22;39101;53.478;6.158;2023-05-19T06:33:22;12.60;99.90
51500;DHT22;39101;53.478;6.158;2023-05-19T06:35:47;12.70;99.90
51500;DHT22;39101;53.478;6.158;2023-05-19T06:38:13;12.90;99.90
51500;DHT22;39101;53.478;6.158;2023-05-19T06:40:39;12.80;99.90
51500;DHT22;39101;53.478;6.158;2023-05-19T06:43:05;13.00;99.90
51500;DHT22;39101;53.478;6.158;2023-05-19T06:45:31;13.10;99.90
51500;DHT22;39101;53.478;6.158;2023-05-19T06:47:57;13.00;99.90
51500;DHT22;39101;53.478;6.158;2023-05-19T06:50:23;13.20;99.90
51500;DHT22;39101;53.478;6.158;2023-05-19T06:52:49;13.10;99.90
51500;DHT22;39101;53.478;6.158;2023-05-19T06:55:15;13.20;99.90
51500;DHT22;39101;53.478;6.158;2023-05-19T06:57:41;13.30;99.90
51500;DHT22;39101;53.478;6.158;2023-05-19T07:00:07;13.40;99.90
51500;DHT22;39101;53.478;6.158;2023-05-19T07:02:43;13.50;99.90
51500;DHT22;39101;53.478;6.158;2023-05-19T07:05:08;13.50;99.90
51500;DHT22;39101;53.478;6.158;2023-05-19T07:07:35;13.60;99.90
51500;DHT22;39101;53.478;6.158;2023-05-19T07:10:00;13.60;99.90
51500;DHT22;39101;53.478;6.158;2023-05-19T07:12:26;13.70;99.90
51500;DHT22;39101;53.478;6.158;2023-05-19T07:14:52;13.90;99.90
51500;DHT22;39101;53.478;6.158;2023-05-19T07:17:18;13.80;99.90
51500;DHT22;39101;53.478;6.158;2023-05-19T07:19:43;13.90;99.90
51500;DHT22;39101;53.478;6.158;2023-05-19T07:22:09;14.00;99.90
51500;DHT22;39101;53.478;6.158;2023-05-19T07:24:35;14.00;99.90
51500;DHT22;39101;53.478;6.158;2023-05-19T07:27:00;14.10;99.90
51500;DHT22;39101;53.478;6.158;2023-05-19T07:29:26;14.20;99.90
51500;DHT22;39101;53.478;6.158;2023-05-19T07:31:52;14.30;99.90
51500;DHT22;39101;53.478;6.158;2023-05-19T07:34:24;14.30;99.90
51500;DHT22;39101;53.478;6.158;2023-05-19T07:36:50;14.30;99.90
51500;DHT22;39101;53.478;6.158;2023-05-19T07:39:17;14.40;99.90
51500;DHT22;39101;53.478;6.158;2023-05-19T07:41:42;14.30;99.90
51500;DHT22;39101;53.478;6.158;2023-05-19T07:44:08;14.40;99.90
51500;DHT22;39101;53.478;6.158;2023-05-19T07:46:37;14.50;99.90
51500;DHT22;39101;53.478;6.158;2023-05-19T07:49:03;14.50;99.90
51500;DHT22;39101;53.478;6.158;2023-05-19T07:51:29;14.70;99.90
51500;DHT22;39101;53.478;6.158;2023-05-19T07:53:56;14.70;99.90
51500;DHT22;39101;53.478;6.158;2023-05-19T07:56:21;14.70;99.90
51500;DHT22;39101;53.478;6.158;2023-05-19T07:58:49;14.70;99.90
51500;DHT22;39101;53.478;6.158;2023-05-19T08:01:15;14.80;99.90
51500;DHT22;39101;53.478;6.158;2023-05-19T08:03:40;14.80;99.90
51500;DHT22;39101;53.478;6.158;2023-05-19T08:06:06;14.80;99.90
51500;DHT22;39101;53.478;6.158;2023-05-19T08:08:32;14.90;99.90
51500;DHT22;39101;53.478;6.158;2023-05-19T08:11:01;14.80;99.90
51500;DHT22;39101;53.478;6.158;2023-05-19T08:13:28;14.80;99.90
51500;DHT22;39101;53.478;6.158;2023-05-19T08:15:54;14.80;99.90
51500;DHT22;39101;53.478;6.158;2023-05-19T08:18:24;14.90;99.90
51500;DHT22;39101;53.478;6.158;2023-05-19T08:20:50;15.00;99.90
51500;DHT22;39101;53.478;6.158;2023-05-19T08:23:15;15.10;99.90
51500;DHT22;39101;53.478;6.158;2023-05-19T08:25:42;15.20;99.90
51500;DHT22;39101;53.478;6.158;2023-05-19T08:28:09;15.30;99.90
51500;DHT22;39101;53.478;6.158;2023-05-19T08:30:34;15.30;99.90
51500;DHT22;39101;53.478;6.158;2023-05-19T08:33:00;15.30;99.90
51500;DHT22;39101;53.478;6.158;2023-05-19T08:35:26;15.10;99.90
51500;DHT22;39101;53.478;6.158;2023-05-19T08:37:52;15.20;99.90
51500;DHT22;39101;53.478;6.158;2023-05-19T08:40:19;15.20;99.90
51500;DHT22;39101;53.478;6.158;2023-05-19T08:42:46;15.30;99.90
51500;DHT22;39101;53.478;6.158;2023-05-19T08:45:12;15.40;99.90
51500;DHT22;39101;53.478;6.158;2023-05-19T08:47:46;15.50;99.90
51500;DHT22;39101;53.478;6.158;2023-05-19T08:50:29;15.60;99.90
51500;DHT22;39101;53.478;6.158;2023-05-19T08:53:14;15.70;99.90
51500;DHT22;39101;53.478;6.158;2023-05-19T08:58:20;15.70;99.90
51500;DHT22;39101;53.478;6.158;2023-05-19T09:00:47;15.70;99.90
51500;DHT22;39101;53.478;6.158;2023-05-19T09:03:14;15.60;99.90
51500;DHT22;39101;53.478;6.158;2023-05-19T09:05:40;15.70;99.90
51500;DHT22;39101;53.478;6.158;2023-05-19T09:08:06;15.50;99.90
51500;DHT22;39101;53.478;6.158;2023-05-19T09:10:32;15.50;99.90
51500;DHT22;39101;53.478;6.158;2023-05-19T09:12:58;15.40;99.90
51500;DHT22;39101;53.478;6.158;2023-05-19T09:15:26;15.40;99.90
51500;DHT22;39101;53.478;6.158;2023-05-19T09:18:08;15.40;99.90
51500;DHT22;39101;53.478;6.158;2023-05-19T09:20:39;15.40;99.90
51500;DHT22;39101;53.478;6.158;2023-05-19T09:23:05;15.20;99.90
51500;DHT22;39101;53.478;6.158;2023-05-19T09:25:30;15.10;99.90
51500;DHT22;39101;53.478;6.158;2023-05-19T09:27:56;14.90;99.90
51500;DHT22;39101;53.478;6.158;2023-05-19T09:30:23;14.90;99.90
51500;DHT22;39101;53.478;6.158;2023-05-19T09:32:50;15.00;99.90
51500;DHT22;39101;53.478;6.158;2023-05-19T09:35:16;15.00;99.90
51500;DHT22;39101;53.478;6.158;2023-05-19T09:37:44;15.10;99.90
51500;DHT22;39101;53.478;6.158;2023-05-19T09:40:13;15.20;99.90
51500;DHT22;39101;53.478;6.158;2023-05-19T09:42:40;15.10;99.90
51500;DHT22;39101;53.478;6.158;2023-05-19T09:45:06;15.10;99.90
51500;DHT22;39101;53.478;6.158;2023-05-19T09:47:37;15.10;99.90
51500;DHT22;39101;53.478;6.158;2023-05-19T09:50:04;15.00;99.90
51500;DHT22;39101;53.478;6.158;2023-05-19T09:52:33;15.10;99.90
51500;DHT22;39101;53.478;6.158;2023-05-19T09:55:00;15.20;99.90
51500;DHT22;39101;53.478;6.158;2023-05-19T09:57:33;15.20;99.90
51500;DHT22;39101;53.478;6.158;2023-05-19T10:00:05;15.20;99.90
51500;DHT22;39101;53.478;6.158;2023-05-19T10:02:43;15.20;99.90
51500;DHT22;39101;53.478;6.158;2023-05-19T10:05:13;15.20;99.90
51500;DHT22;39101;53.478;6.158;2023-05-19T10:07:42;15.20;99.90
51500;DHT22;39101;53.478;6.158;2023-05-19T10:10:11;15.30;99.90
51500;DHT22;39101;53.478;6.158;2023-05-19T10:12:38;15.30;99.90
51500;DHT22;39101;53.478;6.158;2023-05-19T10:15:10;15.40;99.90
51500;DHT22;39101;53.478;6.158;2023-05-19T10:17:40;15.40;99.90
51500;DHT22;39101;53.478;6.158;2023-05-19T10:20:13;15.30;99.90
51500;DHT22;39101;53.478;6.158;2023-05-19T10:22:40;15.30;99.90
51500;DHT22;39101;53.478;6.158;2023-05-19T10:25:07;15.10;99.90
51500;DHT22;39101;53.478;6.158;2023-05-19T10:27:37;15.20;99.90
51500;DHT22;39101;53.478;6.158;2023-05-19T10:30:12;15.30;99.90
51500;DHT22;39101;53.478;6.158;2023-05-19T10:32:40;15.40;99.90
51500;DHT22;39101;53.478;6.158;2023-05-19T10:41:15;15.30;99.90
51500;DHT22;39101;53.478;6.158;2023-05-19T10:46:28;15.40;99.90
51500;DHT22;39101;53.478;6.158;2023-05-19T10:48:54;15.40;99.90
51500;DHT22;39101;53.478;6.158;2023-05-19T10:51:23;15.40;99.90
51500;DHT22;39101;53.478;6.158;2023-05-19T10:53:52;15.20;99.90
51500;DHT22;39101;53.478;6.158;2023-05-19T10:56:29;15.30;99.90
51500;DHT22;39101;53.478;6.158;2023-05-19T10:58:55;15.30;99.90
51500;DHT22;39101;53.478;6.158;2023-05-19T11:01:21;15.10;99.90
51500;DHT22;39101;53.478;6.158;2023-05-19T11:03:54;15.00;99.90
51500;DHT22;39101;53.478;6.158;2023-05-19T11:06:28;14.90;99.90
51500;DHT22;39101;53.478;6.158;2023-05-19T11:09:12;14.70;99.90
51500;DHT22;39101;53.478;6.158;2023-05-19T11:11:52;14.50;99.90
51500;DHT22;39101;53.478;6.158;2023-05-19T11:14:24;14.70;99.90
51500;DHT22;39101;53.478;6.158;2023-05-19T11:16:52;14.70;99.90
51500;DHT22;39101;53.478;6.158;2023-05-19T11:19:29;14.60;99.90
51500;DHT22;39101;53.478;6.158;2023-05-19T11:21:57;14.70;99.90
51500;DHT22;39101;53.478;6.158;2023-05-19T11:24:36;14.70;99.90
51500;DHT22;39101;53.478;6.158;2023-05-19T11:32:32;14.50;99.90
51500;DHT22;39101;53.478;6.158;2023-05-19T11:34:58;14.50;99.90
51500;DHT22;39101;53.478;6.158;2023-05-19T11:37:25;14.60;99.90
51500;DHT22;39101;53.478;6.158;2023-05-19T11:39:53;14.70;99.90
51500;DHT22;39101;53.478;6.158;2023-05-19T11:42:19;14.60;99.90
51500;DHT22;39101;53.478;6.158;2023-05-19T11:44:45;14.60;99.90
51500;DHT22;39101;53.478;6.158;2023-05-19T11:47:14;14.40;99.90
51500;DHT22;39101;53.478;6.158;2023-05-19T11:49:44;14.20;99.90
51500;DHT22;39101;53.478;6.158;2023-05-19T11:52:12;14.00;99.90
51500;DHT22;39101;53.478;6.158;2023-05-19T11:54:37;13.90;99.90
51500;DHT22;39101;53.478;6.158;2023-05-19T11:57:07;13.90;99.90
51500;DHT22;39101;53.478;6.158;2023-05-19T11:59:35;14.00;99.90
51500;DHT22;39101;53.478;6.158;2023-05-19T12:04:50;14.10;99.90
51500;DHT22;39101;53.478;6.158;2023-05-19T12:07:17;14.20;99.90
51500;DHT22;39101;53.478;6.158;2023-05-19T12:09:47;14.30;99.90
51500;DHT22;39101;53.478;6.158;2023-05-19T12:12:18;14.40;99.90
51500;DHT22;39101;53.478;6.158;2023-05-19T12:14:49;14.50;99.90
51500;DHT22;39101;53.478;6.158;2023-05-19T12:17:17;14.50;99.90
51500;DHT22;39101;53.478;6.158;2023-05-19T12:19:45;14.50;99.90
51500;DHT22;39101;53.478;6.158;2023-05-19T12:22:11;14.50;99.90
51500;DHT22;39101;53.478;6.158;2023-05-19T12:24:38;14.50;99.90
51500;DHT22;39101;53.478;6.158;2023-05-19T12:27:17;14.50;99.90
51500;DHT22;39101;53.478;6.158;2023-05-19T12:29:48;14.50;99.90
51500;DHT22;39101;53.478;6.158;2023-05-19T12:32:16;14.50;99.90
51500;DHT22;39101;53.478;6.158;2023-05-19T12:34:42;14.40;99.90
51500;DHT22;39101;53.478;6.158;2023-05-19T12:37:09;14.40;99.90
51500;DHT22;39101;53.478;6.158;2023-05-19T12:39:35;14.40;99.90
51500;DHT22;39101;53.478;6.158;2023-05-19T12:42:09;14.60;99.90
51500;DHT22;39101;53.478;6.158;2023-05-19T12:44:45;14.60;99.90
51500;DHT22;39101;53.478;6.158;2023-05-19T12:47:11;14.60;99.90
51500;DHT22;39101;53.478;6.158;2023-05-19T12:49:59;14.60;99.90
51500;DHT22;39101;53.478;6.158;2023-05-19T12:52:26;14.60;99.90
51500;DHT22;39101;53.478;6.158;2023-05-19T12:55:01;14.50;99.90
51500;DHT22;39101;53.478;6.158;2023-05-19T12:57:29;14.60;99.90
51500;DHT22;39101;53.478;6.158;2023-05-19T13:00:21;14.80;99.90
51500;DHT22;39101;53.478;6.158;2023-05-19T13:03:06;14.80;99.90
51500;DHT22;39101;53.478;6.158;2023-05-19T13:05:37;14.80;99.90
51500;DHT22;39101;53.478;6.158;2023-05-19T13:10:32;14.70;99.90
51500;DHT22;39101;53.478;6.158;2023-05-19T13:12:58;14.70;99.90
51500;DHT22;39101;53.478;6.158;2023-05-19T13:15:29;14.80;99.90
51500;DHT22;39101;53.478;6.158;2023-05-19T13:18:02;14.80;99.90
51500;DHT22;39101;53.478;6.158;2023-05-19T13:20:28;14.80;99.90
51500;DHT22;39101;53.478;6.158;2023-05-19T13:22:54;14.90;99.90
51500;DHT22;39101;53.478;6.158;2023-05-19T13:25:20;14.80;99.90
51500;DHT22;39101;53.478;6.158;2023-05-19T13:27:47;14.70;99.90
51500;DHT22;39101;53.478;6.158;2023-05-19T13:30:13;14.70;99.90
51500;DHT22;39101;53.478;6.158;2023-05-19T13:32:40;14.60;99.90
51500;DHT22;39101;53.478;6.158;2023-05-19T13:35:07;14.60;99.90
51500;DHT22;39101;53.478;6.158;2023-05-19T13:37:33;14.50;99.90
51500;DHT22;39101;53.478;6.158;2023-05-19T13:39:59;14.40;99.90
51500;DHT22;39101;53.478;6.158;2023-05-19T13:42:24;14.30;99.90
51500;DHT22;39101;53.478;6.158;2023-05-19T13:44:54;14.30;99.90
51500;DHT22;39101;53.478;6.158;2023-05-19T13:47:22;14.50;99.90
51500;DHT22;39101;53.478;6.158;2023-05-19T13:49:48;14.60;99.90
51500;DHT22;39101;53.478;6.158;2023-05-19T13:52:13;14.60;99.90
51500;DHT22;39101;53.478;6.158;2023-05-19T13:54:39;14.60;99.90
51500;DHT22;39101;53.478;6.158;2023-05-19T13:57:05;14.60;99.90
51500;DHT22;39101;53.478;6.158;2023-05-19T13:59:31;14.60;99.90
51500;DHT22;39101;53.478;6.158;2023-05-19T14:01:57;14.60;99.90
51500;DHT22;39101;53.478;6.158;2023-05-19T14:04:23;14.60;99.90
51500;DHT22;39101;53.478;6.158;2023-05-19T14:06:49;14.60;99.90
51500;DHT22;39101;53.478;6.158;2023-05-19T14:09:15;14.60;99.90
51500;DHT22;39101;53.478;6.158;2023-05-19T14:11:41;14.70;99.90
51500;DHT22;39101;53.478;6.158;2023-05-19T14:14:07;14.60;99.90
51500;DHT22;39101;53.478;6.158;2023-05-19T14:16:33;14.60;99.90
51500;DHT22;39101;53.478;6.158;2023-05-19T14:18:58;14.70;99.90
51500;DHT22;39101;53.478;6.158;2023-05-19T14:21:24;14.60;99.90
51500;DHT22;39101;53.478;6.158;2023-05-19T14:23:50;14.60;99.90
51500;DHT22;39101;53.478;6.158;2023-05-19T14:26:16;14.60;99.90
51500;DHT22;39101;53.478;6.158;2023-05-19T14:28:42;14.60;99.90
51500;DHT22;39101;53.478;6.158;2023-05-19T14:31:12;14.70;99.90
51500;DHT22;39101;53.478;6.158;2023-05-19T14:33:38;14.70;99.90
51500;DHT22;39101;53.478;6.158;2023-05-19T14:36:04;14.80;99.90
51500;DHT22;39101;53.478;6.158;2023-05-19T14:38:30;14.80;99.90
51500;DHT22;39101;53.478;6.158;2023-05-19T14:40:56;14.70;99.90
51500;DHT22;39101;53.478;6.158;2023-05-19T14:43:22;14.80;99.90
51500;DHT22;39101;53.478;6.158;2023-05-19T14:45:48;14.90;99.90
51500;DHT22;39101;53.478;6.158;2023-05-19T14:48:13;14.80;99.90
51500;DHT22;39101;53.478;6.158;2023-05-19T14:50:40;14.80;99.90
51500;DHT22;39101;53.478;6.158;2023-05-19T14:53:06;14.90;99.90
51500;DHT22;39101;53.478;6.158;2023-05-19T14:55:31;14.80;99.90
51500;DHT22;39101;53.478;6.158;2023-05-19T14:57:57;14.80;99.90
51500;DHT22;39101;53.478;6.158;2023-05-19T15:00:23;14.80;99.90
51500;DHT22;39101;53.478;6.158;2023-05-19T15:02:51;14.80;99.90
51500;DHT22;39101;53.478;6.158;2023-05-19T15:05:17;14.80;99.90
51500;DHT22;39101;53.478;6.158;2023-05-19T15:07:42;14.80;99.90
51500;DHT22;39101;53.478;6.158;2023-05-19T15:10:09;15.00;99.90
51500;DHT22;39101;53.478;6.158;2023-05-19T15:12:35;15.10;99.90
51500;DHT22;39101;53.478;6.158;2023-05-19T15:15:01;15.10;99.90
51500;DHT22;39101;53.478;6.158;2023-05-19T15:17:26;15.20;99.90
51500;DHT22;39101;53.478;6.158;2023-05-19T15:19:52;15.30;99.90
51500;DHT22;39101;53.478;6.158;2023-05-19T15:22:18;15.30;99.90
51500;DHT22;39101;53.478;6.158;2023-05-19T15:24:43;15.20;99.90
51500;DHT22;39101;53.478;6.158;2023-05-19T15:27:09;15.30;99.90
51500;DHT22;39101;53.478;6.158;2023-05-19T15:29:35;15.30;99.90
51500;DHT22;39101;53.478;6.158;2023-05-19T15:32:01;15.30;99.90
51500;DHT22;39101;53.478;6.158;2023-05-19T15:34:27;15.40;99.90
51500;DHT22;39101;53.478;6.158;2023-05-19T15:36:52;15.40;99.90
51500;DHT22;39101;53.478;6.158;2023-05-19T15:39:18;15.40;99.90
51500;DHT22;39101;53.478;6.158;2023-05-19T15:41:44;15.50;99.90
51500;DHT22;39101;53.478;6.158;2023-05-19T15:44:10;15.50;99.90
51500;DHT22;39101;53.478;6.158;2023-05-19T15:46:35;15.50;99.90
51500;DHT22;39101;53.478;6.158;2023-05-19T15:49:01;15.70;99.90
51500;DHT22;39101;53.478;6.158;2023-05-19T15:51:28;15.70;99.90
51500;DHT22;39101;53.478;6.158;2023-05-19T15:53:53;15.70;99.90
51500;DHT22;39101;53.478;6.158;2023-05-19T15:56:19;15.80;99.90
51500;DHT22;39101;53.478;6.158;2023-05-19T15:58:46;15.80;99.90
51500;DHT22;39101;53.478;6.158;2023-05-19T16:01:11;15.70;99.90
51500;DHT22;39101;53.478;6.158;2023-05-19T16:03:37;15.70;99.90
51500;DHT22;39101;53.478;6.158;2023-05-19T16:06:03;15.90;99.90
51500;DHT22;39101;53.478;6.158;2023-05-19T16:08:29;15.80;99.90
51500;DHT22;39101;53.478;6.158;2023-05-19T16:10:55;15.80;99.90
51500;DHT22;39101;53.478;6.158;2023-05-19T16:13:21;15.80;99.90
51500;DHT22;39101;53.478;6.158;2023-05-19T16:15:47;15.70;99.90
51500;DHT22;39101;53.478;6.158;2023-05-19T16:18:13;15.60;99.90